sensor_id;sensor_type;location;lat;lon;timestamp;temperature;humidity
11423;DHT22;5768;51.476;7.210;2022-12-26T00:04:26;12.00;99.80
11423;DHT22;5768;51.476;7.210;2022-12-26T00:09:28;12.10;99.90
11423;DHT22;5768;51.476;7.210;2022-12-26T00:14:34;12.10;99.90
11423;DHT22;5768;51.476;7.210;2022-12-26T00:19:36;12.20;99.90
11423;DHT22;5768;51.476;7.210;2022-12-26T00:24:38;11.90;99.90
11423;DHT22;5768;51.476;7.210;2022-12-26T00:29:41;12.00;99.90
11423;DHT22;5768;51.476;7.210;2022-12-26T00:34:44;12.10;99.90
11423;DHT22;5768;51.476;7.210;2022-12-26T00:39:46;12.20;99.90
11423;DHT22;5768;51.476;7.210;2022-12-26T00:44:49;12.30;99.90
11423;DHT22;5768;51.476;7.210;2022-12-26T00:49:51;12.20;99.90
11423;DHT22;5768;51.476;7.210;2022-12-26T00:54:54;12.30;99.90
11423;DHT22;5768;51.476;7.210;2022-12-26T01:00:04;12.20;99.90
11423;DHT22;5768;51.476;7.210;2022-12-26T01:05:09;12.00;99.90
11423;DHT22;5768;51.476;7.210;2022-12-26T01:10:12;12.00;99.90
11423;DHT22;5768;51.476;7.210;2022-12-26T01:15:16;11.90;99.90
11423;DHT22;5768;51.476;7.210;2022-12-26T01:20:19;11.90;99.90
11423;DHT22;5768;51.476;7.210;2022-12-26T01:25:21;11.80;99.90
11423;DHT22;5768;51.476;7.210;2022-12-26T01:30:25;11.90;99.90
11423;DHT22;5768;51.476;7.210;2022-12-26T01:35:27;12.00;99.90
11423;DHT22;5768;51.476;7.210;2022-12-26T01:40:29;12.00;98.90
11423;DHT22;5768;51.476;7.210;2022-12-26T01:45:33;12.00;96.80
11423;DHT22;5768;51.476;7.210;2022-12-26T01:50:40;11.90;99.90
11423;DHT22;5768;51.476;7.210;2022-12-26T01:55:51;11.90;99.90
11423;DHT22;5768;51.476;7.210;2022-12-26T02:00:57;11.80;99.90
11423;DHT22;5768;51.476;7.210;2022-12-26T02:06:01;11.90;99.90
11423;DHT22;5768;51.476;7.210;2022-12-26T02:11:12;12.00;99.90
11423;DHT22;5768;51.476;7.210;2022-12-26T02:16:19;11.90;99.30
11423;DHT22;5768;51.476;7.210;2022-12-26T02:22:01;11.90;99.00
11423;DHT22;5768;51.476;7.210;2022-12-26T02:33:55;11.80;99.90
11423;DHT22;5768;51.476;7.210;2022-12-26T02:39:18;11.90;99.90
11423;DHT22;5768;51.476;7.210;2022-12-26T02:44:34;11.90;99.90
11423;DHT22;5768;51.476;7.210;2022-12-26T02:50:07;11.80;99.90
11423;DHT22;5768;51.476;7.210;2022-12-26T02:55:37;11.90;99.90
11423;DHT22;5768;51.476;7.210;2022-12-26T03:01:05;11.90;99.90
11423;DHT22;5768;51.476;7.210;2022-12-26T03:06:35;11.70;99.90
11423;DHT22;5768;51.476;7.210;2022-12-26T03:12:00;11.70;99.90
11423;DHT22;5768;51.476;7.210;2022-12-26T03:17:26;11.70;99.90
11423;DHT22;5768;51.476;7.210;2022-12-26T03:22:37;11.80;99.90
11423;DHT22;5768;51.476;7.210;2022-12-26T03:27:44;11.90;99.90
11423;DHT22;5768;51.476;7.210;2022-12-26T03:32:46;11.90;99.90
11423;DHT22;5768;51.476;7.210;2022-12-26T03:37:52;11.70;99.90
11423;DHT22;5768;51.476;7.210;2022-12-26T03:43:05;12.00;99.90
11423;DHT22;5768;51.476;7.210;2022-12-26T03:48:40;11.90;99.70
11423;DHT22;5768;51.476;7.210;2022-12-26T03:54:10;11.80;99.90
11423;DHT22;5768;51.476;7.210;2022-12-26T03:59:35;11.80;98.20
11423;DHT22;5768;51.476;7.210;2022-12-26T04:05:02;11.50;99.90
11423;DHT22;5768;51.476;7.210;2022-12-26T04:10:34;11.70;99.60
11423;DHT22;5768;51.476;7.210;2022-12-26T04:16:00;11.90;99.20
11423;DHT22;5768;51.476;7.210;2022-12-26T04:21:36;11.70;98.80
11423;DHT22;5768;51.476;7.210;2022-12-26T04:27:04;11.80;97.70
11423;DHT22;5768;51.476;7.210;2022-12-26T04:32:35;11.50;96.80
11423;DHT22;5768;51.476;7.210;2022-12-26T04:37:58;11.40;96.10
11423;DHT22;5768;51.476;7.210;2022-12-26T04:43:22;11.20;97.30
11423;DHT22;5768;51.476;7.210;2022-12-26T04:48:43;11.20;97.90
11423;DHT22;5768;51.476;7.210;2022-12-26T04:54:05;11.10;99.90
11423;DHT22;5768;51.476;7.210;2022-12-26T04:59:09;11.10;99.20
11423;DHT22;5768;51.476;7.210;2022-12-26T05:04:18;11.10;99.80
11423;DHT22;5768;51.476;7.210;2022-12-26T05:09:38;11.20;99.30
11423;DHT22;5768;51.476;7.210;2022-12-26T05:14:42;11.10;98.20
11423;DHT22;5768;51.476;7.210;2022-12-26T05:19:44;11.00;97.90
11423;DHT22;5768;51.476;7.210;2022-12-26T05:25:07;10.90;98.70
11423;DHT22;5768;51.476;7.210;2022-12-26T05:30:35;11.00;97.40
11423;DHT22;5768;51.476;7.210;2022-12-26T05:35:38;10.90;97.20
11423;DHT22;5768;51.476;7.210;2022-12-26T05:40:40;10.70;97.40
11423;DHT22;5768;51.476;7.210;2022-12-26T05:45:44;10.80;97.70
11423;DHT22;5768;51.476;7.210;2022-12-26T05:50:46;10.70;98.10
11423;DHT22;5768;51.476;7.210;2022-12-26T05:55:48;10.60;99.00
11423;DHT22;5768;51.476;7.210;2022-12-26T06:00:51;10.70;97.30
11423;DHT22;5768;51.476;7.210;2022-12-26T06:05:55;10.70;97.00
11423;DHT22;5768;51.476;7.210;2022-12-26T06:11:01;10.70;97.60
11423;DHT22;5768;51.476;7.210;2022-12-26T06:16:06;10.70;98.30
11423;DHT22;5768;51.476;7.210;2022-12-26T06:21:11;10.70;98.20
11423;DHT22;5768;51.476;7.210;2022-12-26T06:26:15;10.70;98.70
11423;DHT22;5768;51.476;7.210;2022-12-26T06:31:21;10.70;98.10
11423;DHT22;5768;51.476;7.210;2022-12-26T06:36:25;10.80;98.40
11423;DHT22;5768;51.476;7.210;2022-12-26T06:41:28;10.70;99.50
11423;DHT22;5768;51.476;7.210;2022-12-26T06:46:32;10.90;99.90
11423;DHT22;5768;51.476;7.210;2022-12-26T06:51:34;10.70;99.90
11423;DHT22;5768;51.476;7.210;2022-12-26T06:56:36;10.70;99.90
11423;DHT22;5768;51.476;7.210;2022-12-26T07:01:39;10.80;99.90
11423;DHT22;5768;51.476;7.210;2022-12-26T07:06:41;10.80;99.90
11423;DHT22;5768;51.476;7.210;2022-12-26T07:11:45;10.90;99.90
11423;DHT22;5768;51.476;7.210;2022-12-26T07:16:49;10.90;99.30
11423;DHT22;5768;51.476;7.210;2022-12-26T07:21:51;10.90;96.40
11423;DHT22;5768;51.476;7.210;2022-12-26T07:26:53;11.00;95.60
11423;DHT22;5768;51.476;7.210;2022-12-26T07:31:57;11.10;95.00
11423;DHT22;5768;51.476;7.210;2022-12-26T07:36:59;11.10;94.30
11423;DHT22;5768;51.476;7.210;2022-12-26T07:42:01;11.10;94.40
11423;DHT22;5768;51.476;7.210;2022-12-26T07:47:04;11.20;94.40
11423;DHT22;5768;51.476;7.210;2022-12-26T07:52:06;11.10;96.10
11423;DHT22;5768;51.476;7.210;2022-12-26T07:57:08;11.30;96.00
11423;DHT22;5768;51.476;7.210;2022-12-26T08:02:12;11.20;96.00
11423;DHT22;5768;51.476;7.210;2022-12-26T08:07:14;11.30;94.40
11423;DHT22;5768;51.476;7.210;2022-12-26T08:12:16;11.10;95.10
11423;DHT22;5768;51.476;7.210;2022-12-26T08:17:22;11.20;94.50
11423;DHT22;5768;51.476;7.210;2022-12-26T08:22:27;11.10;94.20
11423;DHT22;5768;51.476;7.210;2022-12-26T08:27:29;11.30;93.20
11423;DHT22;5768;51.476;7.210;2022-12-26T08:32:32;11.30;91.30
11423;DHT22;5768;51.476;7.210;2022-12-26T08:37:35;11.30;87.30
11423;DHT22;5768;51.476;7.210;2022-12-26T08:42:37;11.20;85.20
11423;DHT22;5768;51.476;7.210;2022-12-26T08:47:40;11.30;83.60
11423;DHT22;5768;51.476;7.210;2022-12-26T08:52:42;11.30;83.50
11423;DHT22;5768;51.476;7.210;2022-12-26T08:57:44;11.40;38.50
11423;DHT22;5768;51.476;7.210;2022-12-26T09:02:48;11.40;38.60
11423;DHT22;5768;51.476;7.210;2022-12-26T09:07:50;11.50;33.60
11423;DHT22;5768;51.476;7.210;2022-12-26T09:12:52;11.40;32.90
11423;DHT22;5768;51.476;7.210;2022-12-26T09:17:55;11.40;29.90
11423;DHT22;5768;51.476;7.210;2022-12-26T09:22:57;11.40;29.80
11423;DHT22;5768;51.476;7.210;2022-12-26T09:27:59;11.40;29.30
11423;DHT22;5768;51.476;7.210;2022-12-26T09:33:03;11.50;28.80
11423;DHT22;5768;51.476;7.210;2022-12-26T09:38:07;11.40;29.40
11423;DHT22;5768;51.476;7.210;2022-12-26T09:43:16;11.50;26.40
11423;DHT22;5768;51.476;7.210;2022-12-26T09:48:30;11.50;25.80
11423;DHT22;5768;51.476;7.210;2022-12-26T09:53:40;11.70;25.40
11423;DHT22;5768;51.476;7.210;2022-12-26T09:58:46;11.60;25.60
11423;DHT22;5768;51.476;7.210;2022-12-26T10:03:54;11.50;25.70
11423;DHT22;5768;51.476;7.210;2022-12-26T10:09:11;11.60;26.10
11423;DHT22;5768;51.476;7.210;2022-12-26T10:14:35;11.50;26.40
11423;DHT22;5768;51.476;7.210;2022-12-26T10:19:56;11.70;25.60
11423;DHT22;5768;51.476;7.210;2022-12-26T10:25:15;11.70;25.50
11423;DHT22;5768;51.476;7.210;2022-12-26T10:30:23;11.80;25.20
11423;DHT22;5768;51.476;7.210;2022-12-26T10:35:32;11.70;25.70
11423;DHT22;5768;51.476;7.210;2022-12-26T10:40:41;11.70;25.30
11423;DHT22;5768;51.476;7.210;2022-12-26T10:45:53;12.10;25.40
11423;DHT22;5768;51.476;7.210;2022-12-26T10:51:08;12.10;24.70
11423;DHT22;5768;51.476;7.210;2022-12-26T10:56:13;11.80;24.40
11423;DHT22;5768;51.476;7.210;2022-12-26T11:01:33;11.90;24.60
11423;DHT22;5768;51.476;7.210;2022-12-26T11:06:40;12.10;24.20
11423;DHT22;5768;51.476;7.210;2022-12-26T11:11:48;11.90;23.90
11423;DHT22;5768;51.476;7.210;2022-12-26T11:16:52;11.90;24.90
11423;DHT22;5768;51.476;7.210;2022-12-26T11:22:23;12.00;24.50
11423;DHT22;5768;51.476;7.210;2022-12-26T11:27:26;12.00;24.80
11423;DHT22;5768;51.476;7.210;2022-12-26T11:32:28;11.90;24.20
11423;DHT22;5768;51.476;7.210;2022-12-26T11:37:36;11.80;23.60
11423;DHT22;5768;51.476;7.210;2022-12-26T11:42:42;11.80;23.30
11423;DHT22;5768;51.476;7.210;2022-12-26T11:47:50;11.80;24.50
11423;DHT22;5768;51.476;7.210;2022-12-26T11:53:05;11.00;87.80
11423;DHT22;5768;51.476;7.210;2022-12-26T11:58:18;10.90;91.00
11423;DHT22;5768;51.476;7.210;2022-12-26T12:03:32;10.90;84.40
11423;DHT22;5768;51.476;7.210;2022-12-26T12:08:43;11.20;82.20
11423;DHT22;5768;51.476;7.210;2022-12-26T12:13:59;11.30;28.70
11423;DHT22;5768;51.476;7.210;2022-12-26T12:19:19;11.60;25.90
11423;DHT22;5768;51.476;7.210;2022-12-26T12:24:42;11.90;24.70
11423;DHT22;5768;51.476;7.210;2022-12-26T12:30:05;11.90;23.90
11423;DHT22;5768;51.476;7.210;2022-12-26T12:35:27;12.20;23.70
11423;DHT22;5768;51.476;7.210;2022-12-26T12:40:47;12.60;22.30
11423;DHT22;5768;51.476;7.210;2022-12-26T12:46:02;12.60;22.00
11423;DHT22;5768;51.476;7.210;2022-12-26T12:51:16;12.30;22.60
11423;DHT22;5768;51.476;7.210;2022-12-26T12:56:29;12.00;22.10
11423;DHT22;5768;51.476;7.210;2022-12-26T13:01:41;11.70;24.80
11423;DHT22;5768;51.476;7.210;2022-12-26T13:06:50;9.00;99.90
11423;DHT22;5768;51.476;7.210;2022-12-26T13:12:00;8.80;99.90
11423;DHT22;5768;51.476;7.210;2022-12-26T13:17:07;8.80;99.90
11423;DHT22;5768;51.476;7.210;2022-12-26T13:22:18;8.90;99.90
11423;DHT22;5768;51.476;7.210;2022-12-26T13:27:30;9.00;99.90
11423;DHT22;5768;51.476;7.210;2022-12-26T13:32:37;8.90;99.90
11423;DHT22;5768;51.476;7.210;2022-12-26T13:37:55;8.90;99.90
11423;DHT22;5768;51.476;7.210;2022-12-26T13:43:02;9.00;99.90
11423;DHT22;5768;51.476;7.210;2022-12-26T13:49:24;9.20;99.90
11423;DHT22;5768;51.476;7.210;2022-12-26T13:54:28;9.30;99.90
11423;DHT22;5768;51.476;7.210;2022-12-26T13:59:36;9.20;99.90
11423;DHT22;5768;51.476;7.210;2022-12-26T14:04:50;9.50;99.90
11423;DHT22;5768;51.476;7.210;2022-12-26T14:10:04;9.50;97.40
11423;DHT22;5768;51.476;7.210;2022-12-26T14:15:46;9.30;94.50
11423;DHT22;5768;51.476;7.210;2022-12-26T14:21:17;9.20;87.10
11423;DHT22;5768;51.476;7.210;2022-12-26T14:26:34;8.90;29.00
11423;DHT22;5768;51.476;7.210;2022-12-26T14:31:56;8.70;29.90
11423;DHT22;5768;51.476;7.210;2022-12-26T14:37:17;8.80;29.00
11423;DHT22;5768;51.476;7.210;2022-12-26T14:42:24;8.70;27.70
11423;DHT22;5768;51.476;7.210;2022-12-26T14:47:47;8.60;27.50
11423;DHT22;5768;51.476;7.210;2022-12-26T14:52:50;8.40;27.10
11423;DHT22;5768;51.476;7.210;2022-12-26T14:57:53;8.50;27.10
11423;DHT22;5768;51.476;7.210;2022-12-26T15:03:36;8.60;26.80
11423;DHT22;5768;51.476;7.210;2022-12-26T15:08:59;8.50;26.30
11423;DHT22;5768;51.476;7.210;2022-12-26T15:14:38;8.50;25.00
11423;DHT22;5768;51.476;7.210;2022-12-26T15:20:36;8.40;24.10
11423;DHT22;5768;51.476;7.210;2022-12-26T15:26:14;8.20;24.20
11423;DHT22;5768;51.476;7.210;2022-12-26T15:31:47;8.10;24.60
11423;DHT22;5768;51.476;7.210;2022-12-26T15:37:05;8.20;25.10
11423;DHT22;5768;51.476;7.210;2022-12-26T15:42:28;8.20;24.70
11423;DHT22;5768;51.476;7.210;2022-12-26T15:47:45;8.20;24.20
11423;DHT22;5768;51.476;7.210;2022-12-26T15:53:07;8.10;23.70
11423;DHT22;5768;51.476;7.210;2022-12-26T16:04:03;7.90;21.80
11423;DHT22;5768;51.476;7.210;2022-12-26T16:09:26;7.90;21.90
11423;DHT22;5768;51.476;7.210;2022-12-26T16:14:38;7.70;21.10
11423;DHT22;5768;51.476;7.210;2022-12-26T16:19:42;7.40;20.70
11423;DHT22;5768;51.476;7.210;2022-12-26T16:24:48;7.20;21.20
11423;DHT22;5768;51.476;7.210;2022-12-26T16:29:56;7.30;21.80
11423;DHT22;5768;51.476;7.210;2022-12-26T16:35:05;7.30;21.00
11423;DHT22;5768;51.476;7.210;2022-12-26T16:40:21;7.30;21.10
11423;DHT22;5768;51.476;7.210;2022-12-26T16:45:25;7.40;20.50
11423;DHT22;5768;51.476;7.210;2022-12-26T16:50:30;7.40;20.60
11423;DHT22;5768;51.476;7.210;2022-12-26T16:55:37;7.50;20.90
11423;DHT22;5768;51.476;7.210;2022-12-26T17:00:48;7.40;21.00
11423;DHT22;5768;51.476;7.210;2022-12-26T17:06:04;7.50;20.70
11423;DHT22;5768;51.476;7.210;2022-12-26T17:11:11;7.30;20.40
11423;DHT22;5768;51.476;7.210;2022-12-26T17:16:13;7.10;20.40
11423;DHT22;5768;51.476;7.210;2022-12-26T17:21:20;7.00;20.30
11423;DHT22;5768;51.476;7.210;2022-12-26T17:26:30;6.90;20.70
11423;DHT22;5768;51.476;7.210;2022-12-26T17:31:38;6.80;21.10
11423;DHT22;5768;51.476;7.210;2022-12-26T17:36:41;6.80;21.20
11423;DHT22;5768;51.476;7.210;2022-12-26T17:41:52;6.80;20.70
11423;DHT22;5768;51.476;7.210;2022-12-26T17:46:56;6.60;20.40
11423;DHT22;5768;51.476;7.210;2022-12-26T17:51:58;6.60;19.90
11423;DHT22;5768;51.476;7.210;2022-12-26T17:57:02;6.40;19.60
11423;DHT22;5768;51.476;7.210;2022-12-26T18:02:04;6.50;19.20
11423;DHT22;5768;51.476;7.210;2022-12-26T18:07:07;6.60;19.40
11423;DHT22;5768;51.476;7.210;2022-12-26T18:12:21;6.60;20.00
11423;DHT22;5768;51.476;7.210;2022-12-26T18:17:23;6.60;20.20
11423;DHT22;5768;51.476;7.210;2022-12-26T18:22:27;6.60;20.40
11423;DHT22;5768;51.476;7.210;2022-12-26T18:27:32;6.40;20.70
11423;DHT22;5768;51.476;7.210;2022-12-26T18:32:34;6.20;21.30
11423;DHT22;5768;51.476;7.210;2022-12-26T18:37:36;6.30;21.00
11423;DHT22;5768;51.476;7.210;2022-12-26T18:42:40;6.30;21.20
11423;DHT22;5768;51.476;7.210;2022-12-26T18:47:42;6.10;21.20
11423;DHT22;5768;51.476;7.210;2022-12-26T18:52:46;6.00;21.30
11423;DHT22;5768;51.476;7.210;2022-12-26T18:57:50;5.90;21.40
11423;DHT22;5768;51.476;7.210;2022-12-26T19:02:53;5.90;21.20
11423;DHT22;5768;51.476;7.210;2022-12-26T19:07:57;5.70;21.60
11423;DHT22;5768;51.476;7.210;2022-12-26T19:13:01;5.70;21.70
11423;DHT22;5768;51.476;7.210;2022-12-26T19:18:05;5.60;21.90
11423;DHT22;5768;51.476;7.210;2022-12-26T19:23:07;5.50;21.90
11423;DHT22;5768;51.476;7.210;2022-12-26T19:28:10;5.50;21.70
11423;DHT22;5768;51.476;7.210;2022-12-26T19:33:12;5.50;21.70
11423;DHT22;5768;51.476;7.210;2022-12-26T19:38:14;5.40;21.50
11423;DHT22;5768;51.476;7.210;2022-12-26T19:43:18;5.40;21.70
11423;DHT22;5768;51.476;7.210;2022-12-26T19:48:20;5.30;21.90
11423;DHT22;5768;51.476;7.210;2022-12-26T19:53:22;5.30;22.20
11423;DHT22;5768;51.476;7.210;2022-12-26T19:58:28;5.20;22.20
11423;DHT22;5768;51.476;7.210;2022-12-26T20:03:31;5.20;22.10
11423;DHT22;5768;51.476;7.210;2022-12-26T20:08:33;5.10;22.50
11423;DHT22;5768;51.476;7.210;2022-12-26T20:13:36;5.00;22.50
11423;DHT22;5768;51.476;7.210;2022-12-26T20:18:40;5.00;22.90
11423;DHT22;5768;51.476;7.210;2022-12-26T20:23:42;4.90;23.50
11423;DHT22;5768;51.476;7.210;2022-12-26T20:28:46;4.80;23.60
11423;DHT22;5768;51.476;7.210;2022-12-26T20:33:53;4.90;23.20
11423;DHT22;5768;51.476;7.210;2022-12-26T20:38:58;4.90;22.90
11423;DHT22;5768;51.476;7.210;2022-12-26T20:44:03;4.80;22.50
11423;DHT22;5768;51.476;7.210;2022-12-26T20:49:05;4.90;22.00
11423;DHT22;5768;51.476;7.210;2022-12-26T20:54:09;4.70;22.20
11423;DHT22;5768;51.476;7.210;2022-12-26T20:59:14;4.70;22.20
11423;DHT22;5768;51.476;7.210;2022-12-26T21:04:18;4.60;22.50
11423;DHT22;5768;51.476;7.210;2022-12-26T21:09:21;4.60;22.80
11423;DHT22;5768;51.476;7.210;2022-12-26T21:14:25;4.60;22.70
11423;DHT22;5768;51.476;7.210;2022-12-26T21:19:28;4.70;22.20
11423;DHT22;5768;51.476;7.210;2022-12-26T21:24:30;4.60;22.20
11423;DHT22;5768;51.476;7.210;2022-12-26T21:29:34;4.70;22.00
11423;DHT22;5768;51.476;7.210;2022-12-26T21:34:40;4.70;21.60
11423;DHT22;5768;51.476;7.210;2022-12-26T21:39:43;4.70;21.70
11423;DHT22;5768;51.476;7.210;2022-12-26T21:44:47;4.90;21.50
11423;DHT22;5768;51.476;7.210;2022-12-26T21:49:50;4.70;21.50
11423;DHT22;5768;51.476;7.210;2022-12-26T21:54:52;5.10;21.30
11423;DHT22;5768;51.476;7.210;2022-12-26T22:00:14;5.00;20.80
11423;DHT22;5768;51.476;7.210;2022-12-26T22:05:18;5.10;20.20
11423;DHT22;5768;51.476;7.210;2022-12-26T22:10:22;5.20;20.40
11423;DHT22;5768;51.476;7.210;2022-12-26T22:15:45;5.20;20.50
11423;DHT22;5768;51.476;7.210;2022-12-26T22:21:09;5.10;20.50
11423;DHT22;5768;51.476;7.210;2022-12-26T22:26:13;4.90;20.50
11423;DHT22;5768;51.476;7.210;2022-12-26T22:31:19;5.00;20.60
11423;DHT22;5768;51.476;7.210;2022-12-26T22:36:23;5.00;20.50
11423;DHT22;5768;51.476;7.210;2022-12-26T22:41:27;5.10;20.30
11423;DHT22;5768;51.476;7.210;2022-12-26T22:46:31;5.10;20.00
11423;DHT22;5768;51.476;7.210;2022-12-26T22:51:33;5.00;20.30
11423;DHT22;5768;51.476;7.210;2022-12-26T22:56:35;5.00;20.30
11423;DHT22;5768;51.476;7.210;2022-12-26T23:01:39;4.90;20.40
11423;DHT22;5768;51.476;7.210;2022-12-26T23:06:41;4.90;20.80
11423;DHT22;5768;51.476;7.210;2022-12-26T23:11:44;4.90;21.00
11423;DHT22;5768;51.476;7.210;2022-12-26T23:17:12;4.80;21.00
11423;DHT22;5768;51.476;7.210;2022-12-26T23:22:37;4.90;21.30
11423;DHT22;5768;51.476;7.210;2022-12-26T23:27:40;4.90;21.20
11423;DHT22;5768;51.476;7.210;2022-12-26T23:33:01;4.90;21.70
11423;DHT22;5768;51.476;7.210;2022-12-26T23:38:03;5.00;21.40
11423;DHT22;5768;51.476;7.210;2022-12-26T23:43:05;4.90;21.50
11423;DHT22;5768;51.476;7.210;2022-12-26T23:48:08;5.10;21.50
11423;DHT22;5768;51.476;7.210;2022-12-26T23:53:11;4.90;21.60
11423;DHT22;5768;51.476;7.210;2022-12-26T23:58:13;4.80;22.00
